METAR Data
IDs: Format: Raw Decoded Include TAF

Data at: 1706 UTC 03 Jun 2020

KSIK 031655Z AUTO 00000KT 10SM CLR 30/20 A2996 RMK AO2 LTG DSNT SW
KSIK 031635Z AUTO 00000KT 10SM CLR 30/20 A2997 RMK AO2
KSIK 031615Z AUTO 26005KT 10SM CLR 30/20 A2998 RMK AO2
KSIK 031555Z AUTO 24004KT 10SM CLR 28/20 A2998 RMK AO2
KSIK 031535Z AUTO 26005KT 10SM CLR 28/20 A2998 RMK AO2
KSIK 031515Z AUTO 22006KT 10SM CLR 27/20 A2998 RMK AO2
KSIK 031455Z AUTO 21006KT 10SM CLR 27/20 A2999 RMK AO2
KSIK 031435Z AUTO 23008KT 10SM CLR 26/20 A3000 RMK AO2
KSIK 031415Z AUTO 22008KT 10SM CLR 26/20 A3000 RMK AO2
KSIK 031355Z AUTO 21004KT 10SM CLR 26/19 A2999 RMK AO2
KSIK 031335Z AUTO 22005KT 10SM CLR 25/19 A2999 RMK AO2
KSIK 031315Z AUTO 22004KT 10SM CLR 25/19 A2999 RMK AO2
KSIK 031255Z AUTO 22003KT 10SM CLR 25/18 A3000 RMK AO2
KSIK 031235Z AUTO 22004KT 10SM CLR 23/18 A3000 RMK AO2
KSIK 031215Z AUTO 23003KT 10SM CLR 22/18 A3000 RMK AO2
KSIK 031155Z AUTO 00000KT 10SM CLR 21/17 A3000 RMK AO2
KSIK 031135Z AUTO 00000KT 10SM CLR 20/17 A2999 RMK AO2
KSIK 031115Z AUTO 00000KT 10SM CLR 18/17 A2999 RMK AO2
KSIK 031055Z AUTO 00000KT 10SM CLR 17/16 A2999 RMK AO2
KSIK 031035Z AUTO 00000KT 10SM CLR 17/16 A3000 RMK AO2
KSIK 031015Z AUTO 00000KT 10SM CLR 17/16 A3000 RMK AO2
KSIK 030955Z AUTO 00000KT 10SM CLR 17/16 A2999 RMK AO2
KSIK 030935Z AUTO 00000KT 10SM CLR 18/16 A2999 RMK AO2
KSIK 030915Z AUTO 00000KT 10SM CLR 19/16 A2999 RMK AO2
KSIK 030855Z AUTO 00000KT 10SM CLR 18/16 A2999 RMK AO2
KSIK 030835Z AUTO 00000KT 10SM CLR 18/16 A2999 RMK AO2
KSIK 030815Z AUTO 24003KT 10SM CLR 20/16 A2999 RMK AO2
KSIK 030755Z AUTO 23004KT 10SM CLR 20/16 A2999 RMK AO2
KSIK 030735Z AUTO 00000KT 10SM CLR 19/16 A3000 RMK AO2
KSIK 030715Z AUTO 00000KT 10SM CLR 19/17 A3000 RMK AO2
KSIK 030655Z AUTO 00000KT 10SM CLR 20/16 A3001 RMK AO2
KSIK 030635Z AUTO 00000KT 10SM CLR 21/16 A3001 RMK AO2
KSIK 030615Z AUTO 23003KT 10SM CLR 21/16 A3001 RMK AO2
KSIK 030555Z AUTO 22003KT 10SM CLR 22/16 A3001 RMK AO2
KSIK 030535Z AUTO 22005KT 10SM CLR 23/16 A3001 RMK AO2
KSIK 030515Z AUTO 23005KT 10SM CLR 23/15 A3001 RMK AO2
KSIK 030455Z AUTO 22006KT 10SM CLR 24/15 A3000 RMK AO2
KSIK 030435Z AUTO 21006KT 10SM CLR 25/15 A3000 RMK AO2
KSIK 030415Z AUTO 21005KT 10SM CLR 25/15 A3001 RMK AO2
KSIK 030355Z AUTO 20003KT 10SM CLR 25/15 A3001 RMK AO2
KSIK 030335Z AUTO 19003KT 10SM CLR 25/15 A3002 RMK AO2
KSIK 030315Z AUTO 19003KT 10SM CLR 25/15 A3002 RMK AO2
KSIK 030255Z AUTO 18003KT 10SM CLR 26/15 A3001 RMK AO2
KSIK 030235Z AUTO 19003KT 10SM CLR 26/15 A3001 RMK AO2
KSIK 030215Z AUTO 00000KT 10SM CLR 26/15 A3001 RMK AO2
KSIK 030155Z AUTO 18003KT 10SM CLR 27/14 A3000 RMK AO2
KSIK 030135Z AUTO 16003KT 10SM CLR 28/14 A3000 RMK AO2
KSIK 030115Z AUTO 18003KT 10SM CLR 28/13 A3000 RMK AO2
KSIK 030055Z AUTO 23003KT 10SM CLR 29/13 A3000 RMK AO2
KSIK 030035Z AUTO 24008KT 10SM CLR 30/12 A3000 RMK AO2
KSIK 030015Z AUTO 23007G14KT 10SM CLR 31/11 A3000 RMK AO2
KSIK 022355Z AUTO 23004KT 10SM CLR 31/10 A3000 RMK AO2
KSIK 022335Z AUTO 23007KT 10SM CLR 32/10 A3001 RMK AO2
KSIK 022315Z AUTO 23007KT 10SM CLR 31/11 A3001 RMK AO2
KSIK 022255Z AUTO 22006KT 10SM CLR 31/12 A3001 RMK AO2
KSIK 022235Z AUTO 22006KT 10SM CLR 31/12 A3001 RMK AO2
KSIK 022215Z AUTO 24010KT 10SM CLR 32/11 A3002 RMK AO2
KSIK 022155Z AUTO 22010G15KT 10SM CLR 31/11 A3003 RMK AO2
KSIK 022135Z AUTO 24008KT 10SM CLR 32/12 A3003 RMK AO2
KSIK 022115Z AUTO 19007G15KT 10SM CLR 32/11 A3004 RMK AO2
KSIK 022055Z AUTO 22009KT 10SM CLR 33/12 A3004 RMK AO2
KSIK 022035Z AUTO 26008KT 202V272 10SM CLR 32/11 A3005 RMK AO2
KSIK 022015Z AUTO 23005G08KT 10SM CLR 32/11 A3005 RMK AO2
KSIK 021955Z AUTO 21004KT 10SM CLR 32/12 A3006 RMK AO2
KSIK 021935Z AUTO 24010KT 10SM CLR 32/11 A3006 RMK AO2
KSIK 021915Z AUTO 23009KT 10SM CLR 32/11 A3007 RMK AO2
KSIK 021855Z AUTO 20006G15KT 162V232 10SM CLR 31/11 A3007 RMK AO2
KSIK 021835Z AUTO 22007KT 202V262 10SM CLR 31/12 A3008 RMK AO2
KSIK 021815Z AUTO 24008KT 10SM CLR 31/12 A3008 RMK AO2
KSIK 021755Z AUTO 22007KT 192V252 10SM CLR 31/11 A3009 RMK AO2
KSIK 021735Z AUTO 25009G15KT 10SM CLR 30/11 A3009 RMK AO2
KSIK 021715Z AUTO 24009KT 10SM CLR 30/11 A3010 RMK AO2
KSIK 021655Z AUTO 23009G14KT 10SM CLR 30/12 A3011 RMK AO2
KSIK 021635Z AUTO 25009G14KT 10SM CLR 29/11 A3011 RMK AO2
KSIK 021615Z AUTO 25009KT 10SM CLR 29/12 A3012 RMK AO2
KSIK 021555Z AUTO 26005KT 10SM CLR 28/13 A3012 RMK AO2
KSIK 021535Z AUTO 27006KT 10SM CLR 28/13 A3012 RMK AO2
KSIK 021515Z AUTO 25005KT 10SM CLR 27/15 A3013 RMK AO2
KSIK 021455Z AUTO 26005KT 10SM CLR 26/15 A3013 RMK AO2
KSIK 021435Z AUTO 27006KT 10SM CLR 25/15 A3013 RMK AO2
KSIK 021415Z AUTO 24005KT 10SM CLR 25/14 A3013 RMK AO2
KSIK 021355Z AUTO 22003KT 10SM CLR 24/13 A3013 RMK AO2
KSIK 021335Z AUTO 00000KT 10SM CLR 23/15 A3013 RMK AO2
KSIK 021315Z AUTO 00000KT 10SM CLR 22/15 A3013 RMK AO2
KSIK 021255Z AUTO 00000KT 10SM CLR 21/16 A3013 RMK AO2
KSIK 021235Z AUTO 00000KT 10SM CLR 20/16 A3013 RMK AO2
KSIK 021215Z AUTO 00000KT 10SM CLR 18/16 A3012 RMK AO2
KSIK 021155Z AUTO 00000KT 10SM CLR 16/15 A3012 RMK AO2
KSIK 021135Z AUTO 00000KT 10SM CLR 15/13 A3012 RMK AO2
KSIK 021115Z AUTO 00000KT 10SM CLR 15/14 A3011 RMK AO2
KSIK 021055Z AUTO 00000KT 10SM CLR 15/13 A3011 RMK AO2
KSIK 021035Z AUTO 00000KT 10SM CLR 15/13 A3011 RMK AO2
KSIK 021015Z AUTO 00000KT 10SM CLR 15/14 A3011 RMK AO2
KSIK 020955Z AUTO 00000KT 10SM CLR 16/14 A3011 RMK AO2
KSIK 020935Z AUTO 00000KT 10SM CLR 16/14 A3011 RMK AO2
KSIK 020915Z AUTO 00000KT 10SM CLR 16/13 A3010 RMK AO2
KSIK 020855Z AUTO 00000KT 10SM CLR 16/14 A3010 RMK AO2
KSIK 020835Z AUTO 00000KT 10SM CLR 17/15 A3010 RMK AO2
KSIK 020815Z AUTO 00000KT 10SM CLR 17/14 A3010 RMK AO2
KSIK 020755Z AUTO 00000KT 10SM CLR 17/15 A3010 RMK AO2
KSIK 020735Z AUTO 00000KT 10SM CLR 18/14 A3010 RMK AO2
KSIK 020715Z AUTO 00000KT 10SM CLR 18/15 A3010 RMK AO2
KSIK 020655Z AUTO 00000KT 10SM CLR 18/15 A3010 RMK AO2
KSIK 020635Z AUTO 00000KT 10SM CLR 18/14 A3011 RMK AO2
KSIK 020615Z AUTO 00000KT 10SM CLR 19/13 A3011 RMK AO2
KSIK 020555Z AUTO 00000KT 10SM CLR 20/13 A3011 RMK AO2
KSIK 020535Z AUTO 18003KT 10SM CLR 20/13 A3011 RMK AO2
KSIK 020515Z AUTO 00000KT 10SM CLR 19/12 A3012 RMK AO2